KSPA

Spartanburg Downtown Memorial Airport

Spartanburg, South Carolina, USA
METAR KSPA 151615Z AUTO 00000KT 10SM OVC004 09/08 A2996 RMK AO2
Observed Flight Rules
Dec-15 @ 16:15 UTC (19 minutes ago) Instrument Flight Rules
Visibility Clouds
10 miles
  • Overcast at 400' AGL
Temperatures Readings
Current 9°C / 48°F
Dewpoint 8°C / 46°F
Humidity 94%
Altimeter 29.96" Hg
Pressure 1015 hPa
Elevation 303
METAR KSPA 151615Z AUTO 00000KT 10SM OVC004 09/08 A2996 RMK AO2
Observed Flight Rules
Dec-15 @ 16:15 UTC
(19 minutes ago)
LIFR
Clouds
  • Overcast at 400' AGL
Temperature Dewpoint
9°C / 48°F 8°C / 46°F
Humidity Altimeter Pressure
94% 29.96" Hg 1015 hPa